sensor_id;sensor_type;location;lat;lon;timestamp;pressure;altitude;pressure_sealevel;temperature;humidity
45247;BME280;31529;51.158;7.354;2022-11-20T00:00:14;97454.47;;;4.58;72.07
45247;BME280;31529;51.158;7.354;2022-11-20T00:00:46;97462.94;;;4.60;71.77
45247;BME280;31529;51.158;7.354;2022-11-20T00:01:18;97456.88;;;4.60;71.91
45247;BME280;31529;51.158;7.354;2022-11-20T00:01:51;97460.28;;;4.60;72.12
45247;BME280;31529;51.158;7.354;2022-11-20T00:02:22;97455.00;;;4.60;71.96
45247;BME280;31529;51.158;7.354;2022-11-20T00:02:53;97460.53;;;4.59;71.94
45247;BME280;31529;51.158;7.354;2022-11-20T00:03:24;97456.34;;;4.58;72.08
45247;BME280;31529;51.158;7.354;2022-11-20T00:03:57;97458.19;;;4.57;72.10
45247;BME280;31529;51.158;7.354;2022-11-20T00:04:29;97458.19;;;4.57;71.95
45247;BME280;31529;51.158;7.354;2022-11-20T00:05:00;97456.59;;;4.56;72.38
45247;BME280;31529;51.158;7.354;2022-11-20T00:05:32;97454.72;;;4.57;72.22
45247;BME280;31529;51.158;7.354;2022-11-20T00:06:04;97451.03;;;4.58;72.25
45247;BME280;31529;51.158;7.354;2022-11-20T00:06:37;97452.91;;;4.57;72.40
45247;BME280;31529;51.158;7.354;2022-11-20T00:07:08;97447.63;;;4.57;72.09
45247;BME280;31529;51.158;7.354;2022-11-20T00:07:39;97453.69;;;4.58;72.18
45247;BME280;31529;51.158;7.354;2022-11-20T00:08:10;97450.25;;;4.57;72.05
45247;BME280;31529;51.158;7.354;2022-11-20T00:08:42;97448.41;;;4.58;72.55
45247;BME280;31529;51.158;7.354;2022-11-20T00:09:14;97453.16;;;4.56;72.13
45247;BME280;31529;51.158;7.354;2022-11-20T00:09:45;97449.44;;;4.57;72.51
45247;BME280;31529;51.158;7.354;2022-11-20T00:10:16;97455.78;;;4.56;72.51
45247;BME280;31529;51.158;7.354;2022-11-20T00:10:47;97461.06;;;4.56;72.68
45247;BME280;31529;51.158;7.354;2022-11-20T00:11:22;97455.78;;;4.56;72.45
45247;BME280;31529;51.158;7.354;2022-11-20T00:11:56;97453.16;;;4.56;72.68
45247;BME280;31529;51.158;7.354;2022-11-20T00:12:30;97452.91;;;4.57;72.42
45247;BME280;31529;51.158;7.354;2022-11-20T00:13:03;97454.47;;;4.58;72.61
45247;BME280;31529;51.158;7.354;2022-11-20T00:13:34;97455.25;;;4.59;72.60
45247;BME280;31529;51.158;7.354;2022-11-20T00:14:06;97456.09;;;4.59;72.47
45247;BME280;31529;51.158;7.354;2022-11-20T00:14:40;97455.25;;;4.59;72.61
45247;BME280;31529;51.158;7.354;2022-11-20T00:15:13;97453.69;;;4.58;72.66
45247;BME280;31529;51.158;7.354;2022-11-20T00:15:44;97455.25;;;4.59;72.81
45247;BME280;31529;51.158;7.354;2022-11-20T00:16:16;97453.44;;;4.59;72.84
45247;BME280;31529;51.158;7.354;2022-11-20T00:16:52;97457.66;;;4.60;73.06
45247;BME280;31529;51.158;7.354;2022-11-20T00:17:27;97448.69;;;4.61;72.93
45247;BME280;31529;51.158;7.354;2022-11-20T00:18:04;97455.56;;;4.62;73.07
45247;BME280;31529;51.158;7.354;2022-11-20T00:18:35;97451.06;;;4.63;72.95
45247;BME280;31529;51.158;7.354;2022-11-20T00:19:07;97450.25;;;4.62;72.97
45247;BME280;31529;51.158;7.354;2022-11-20T00:19:49;97456.91;;;4.65;72.97
45247;BME280;31529;51.158;7.354;2022-11-20T00:20:20;97453.19;;;4.66;72.82
45247;BME280;31529;51.158;7.354;2022-11-20T00:20:51;97453.97;;;4.66;73.05
45247;BME280;31529;51.158;7.354;2022-11-20T00:21:24;97457.16;;;4.68;73.10
45247;BME280;31529;51.158;7.354;2022-11-20T00:21:56;97454.50;;;4.68;72.92
45247;BME280;31529;51.158;7.354;2022-11-20T00:22:27;97456.91;;;4.70;73.08
45247;BME280;31529;51.158;7.354;2022-11-20T00:22:58;97445.56;;;4.69;73.08
45247;BME280;31529;51.158;7.354;2022-11-20T00:23:29;97452.44;;;4.71;72.83
45247;BME280;31529;51.158;7.354;2022-11-20T00:24:01;97451.38;;;4.72;72.78
45247;BME280;31529;51.158;7.354;2022-11-20T00:24:32;97452.69;;;4.74;72.81
45247;BME280;31529;51.158;7.354;2022-11-20T00:25:03;97451.13;;;4.73;73.10
45247;BME280;31529;51.158;7.354;2022-11-20T00:25:34;97445.84;;;4.73;72.76
45247;BME280;31529;51.158;7.354;2022-11-20T00:26:07;97442.94;;;4.75;72.81
45247;BME280;31529;51.158;7.354;2022-11-20T00:26:40;97447.41;;;4.74;72.99
45247;BME280;31529;51.158;7.354;2022-11-20T00:27:12;97446.38;;;4.75;73.07
45247;BME280;31529;51.158;7.354;2022-11-20T00:27:43;97444.50;;;4.76;72.76
45247;BME280;31529;51.158;7.354;2022-11-20T00:28:14;97446.38;;;4.75;72.83
45247;BME280;31529;51.158;7.354;2022-11-20T00:28:54;97449.78;;;4.76;72.92
45247;BME280;31529;51.158;7.354;2022-11-20T00:29:30;97442.41;;;4.78;72.85
45247;BME280;31529;51.158;7.354;2022-11-20T00:30:01;97437.13;;;4.78;72.89
45247;BME280;31529;51.158;7.354;2022-11-20T00:30:32;97441.63;;;4.77;72.54
45247;BME280;31529;51.158;7.354;2022-11-20T00:31:04;97443.22;;;4.78;72.36
45247;BME280;31529;51.158;7.354;2022-11-20T00:31:39;97437.41;;;4.76;72.29
45247;BME280;31529;51.158;7.354;2022-11-20T00:32:10;97439.22;;;4.76;72.36
45247;BME280;31529;51.158;7.354;2022-11-20T00:32:41;97439.75;;;4.73;72.38
45247;BME280;31529;51.158;7.354;2022-11-20T00:33:12;97445.03;;;4.73;71.85
45247;BME280;31529;51.158;7.354;2022-11-20T00:33:44;97447.69;;;4.73;72.53
45247;BME280;31529;51.158;7.354;2022-11-20T00:34:15;97443.69;;;4.70;72.46
45247;BME280;31529;51.158;7.354;2022-11-20T00:34:46;97443.94;;;4.68;72.33
45247;BME280;31529;51.158;7.354;2022-11-20T00:35:17;97446.59;;;4.68;72.93
45247;BME280;31529;51.158;7.354;2022-11-20T00:35:49;97438.66;;;4.68;73.09
45247;BME280;31529;51.158;7.354;2022-11-20T00:36:21;97446.06;;;4.66;72.95
45247;BME280;31529;51.158;7.354;2022-11-20T00:36:53;97438.66;;;4.68;73.29
45247;BME280;31529;51.158;7.354;2022-11-20T00:37:24;97443.94;;;4.68;73.16
45247;BME280;31529;51.158;7.354;2022-11-20T00:37:55;97446.59;;;4.68;73.12
45247;BME280;31529;51.158;7.354;2022-11-20T00:38:26;97446.34;;;4.70;72.84
45247;BME280;31529;51.158;7.354;2022-11-20T00:38:58;97449.22;;;4.68;72.57
45247;BME280;31529;51.158;7.354;2022-11-20T00:39:29;97447.66;;;4.67;72.81
45247;BME280;31529;51.158;7.354;2022-11-20T00:40:00;97444.22;;;4.67;72.47
45247;BME280;31529;51.158;7.354;2022-11-20T00:40:31;97448.69;;;4.66;72.44
45247;BME280;31529;51.158;7.354;2022-11-20T00:41:04;97450.53;;;4.66;72.40
45247;BME280;31529;51.158;7.354;2022-11-20T00:41:36;97447.91;;;4.66;72.38
45247;BME280;31529;51.158;7.354;2022-11-20T00:42:07;97353.03;;;4.01;72.34
45247;BME280;31529;51.158;7.354;2022-11-20T00:42:38;97443.13;;;4.63;72.87
45247;BME280;31529;51.158;7.354;2022-11-20T00:43:10;97446.59;;;4.63;73.01
45247;BME280;31529;51.158;7.354;2022-11-20T00:43:41;97447.63;;;4.62;72.98
45247;BME280;31529;51.158;7.354;2022-11-20T00:44:12;97452.91;;;4.62;73.02
45247;BME280;31529;51.158;7.354;2022-11-20T00:44:43;97444.97;;;4.62;73.01
45247;BME280;31529;51.158;7.354;2022-11-20T00:45:14;97442.09;;;4.64;72.95
45247;BME280;31529;51.158;7.354;2022-11-20T00:45:45;97443.94;;;4.63;72.82
45247;BME280;31529;51.158;7.354;2022-11-20T00:46:17;97446.59;;;4.63;73.15
45247;BME280;31529;51.158;7.354;2022-11-20T00:46:51;97449.22;;;4.63;73.00
45247;BME280;31529;51.158;7.354;2022-11-20T00:47:22;97451.06;;;4.63;72.61
45247;BME280;31529;51.158;7.354;2022-11-20T00:47:53;97448.69;;;4.61;72.85
45247;BME280;31529;51.158;7.354;2022-11-20T00:48:24;97450.78;;;4.59;72.74
45247;BME280;31529;51.158;7.354;2022-11-20T00:48:55;97446.00;;;4.56;72.57
45247;BME280;31529;51.158;7.354;2022-11-20T00:49:26;97450.75;;;4.54;72.63
45247;BME280;31529;51.158;7.354;2022-11-20T00:49:57;97453.66;;;4.53;72.79
45247;BME280;31529;51.158;7.354;2022-11-20T00:50:29;97450.47;;;4.50;73.00
45247;BME280;31529;51.158;7.354;2022-11-20T00:51:00;97449.69;;;4.50;73.57
45247;BME280;31529;51.158;7.354;2022-11-20T00:51:31;97452.34;;;4.50;73.52
45247;BME280;31529;51.158;7.354;2022-11-20T00:52:02;97453.91;;;4.51;73.54
45247;BME280;31529;51.158;7.354;2022-11-20T00:52:33;97448.88;;;4.49;73.72
45247;BME280;31529;51.158;7.354;2022-11-20T00:53:04;97456.00;;;4.49;73.67
45247;BME280;31529;51.158;7.354;2022-11-20T00:53:35;97447.53;;;4.47;73.52
45247;BME280;31529;51.158;7.354;2022-11-20T00:54:06;97447.28;;;4.48;73.76
45247;BME280;31529;51.158;7.354;2022-11-20T00:54:38;97453.63;;;4.47;73.87
45247;BME280;31529;51.158;7.354;2022-11-20T00:55:09;97450.19;;;4.47;73.62
45247;BME280;31529;51.158;7.354;2022-11-20T00:55:40;97451.75;;;4.43;73.75
45247;BME280;31529;51.158;7.354;2022-11-20T00:56:14;97454.91;;;4.40;73.82
45247;BME280;31529;51.158;7.354;2022-11-20T00:56:47;97450.44;;;4.40;73.69
45247;BME280;31529;51.158;7.354;2022-11-20T00:57:18;97449.13;;;4.43;73.91
45247;BME280;31529;51.158;7.354;2022-11-20T00:57:49;97457.03;;;4.43;73.60
45247;BME280;31529;51.158;7.354;2022-11-20T00:58:20;97448.88;;;4.44;73.61
45247;BME280;31529;51.158;7.354;2022-11-20T00:58:52;97453.34;;;4.44;73.77
45247;BME280;31529;51.158;7.354;2022-11-20T00:59:23;97456.78;;;4.44;73.47
45247;BME280;31529;51.158;7.354;2022-11-20T00:59:54;97452.28;;;4.45;73.77
45247;BME280;31529;51.158;7.354;2022-11-20T01:00:25;97444.13;;;4.46;73.87
45247;BME280;31529;51.158;7.354;2022-11-20T01:01:00;97449.41;;;4.46;73.89
45247;BME280;31529;51.158;7.354;2022-11-20T01:01:32;97439.63;;;4.47;74.05
45247;BME280;31529;51.158;7.354;2022-11-20T01:02:03;97438.59;;;4.48;73.77
45247;BME280;31529;51.158;7.354;2022-11-20T01:02:34;97439.38;;;4.48;73.74
45247;BME280;31529;51.158;7.354;2022-11-20T01:03:06;97434.34;;;4.47;73.97
45247;BME280;31529;51.158;7.354;2022-11-20T01:03:38;97435.94;;;4.48;74.08
45247;BME280;31529;51.158;7.354;2022-11-20T01:04:10;97436.97;;;4.47;73.91
45247;BME280;31529;51.158;7.354;2022-11-20T01:04:42;97427.19;;;4.47;73.98
45247;BME280;31529;51.158;7.354;2022-11-20T01:05:13;97434.59;;;4.45;73.90
45247;BME280;31529;51.158;7.354;2022-11-20T01:05:44;97425.59;;;4.41;73.97
45247;BME280;31529;51.158;7.354;2022-11-20T01:06:17;97431.94;;;4.40;74.19
45247;BME280;31529;51.158;7.354;2022-11-20T01:06:52;97435.38;;;4.41;73.97
45247;BME280;31529;51.158;7.354;2022-11-20T01:07:23;97434.84;;;4.39;74.06
45247;BME280;31529;51.158;7.354;2022-11-20T01:07:54;97437.72;;;4.37;74.01
45247;BME280;31529;51.158;7.354;2022-11-20T01:08:28;97443.78;;;4.38;74.45
45247;BME280;31529;51.158;7.354;2022-11-20T01:09:01;97438.50;;;4.38;74.30
45247;BME280;31529;51.158;7.354;2022-11-20T01:09:35;97445.41;;;4.39;74.31
45247;BME280;31529;51.158;7.354;2022-11-20T01:10:06;97440.13;;;4.39;74.29
45247;BME280;31529;51.158;7.354;2022-11-20T01:10:37;97432.19;;;4.39;74.60
45247;BME280;31529;51.158;7.354;2022-11-20T01:11:10;97436.41;;;4.40;75.02
45247;BME280;31529;51.158;7.354;2022-11-20T01:11:43;97439.59;;;4.42;74.60
45247;BME280;31529;51.158;7.354;2022-11-20T01:12:15;97435.13;;;4.42;74.30
45247;BME280;31529;51.158;7.354;2022-11-20T01:12:46;97439.34;;;4.43;74.55
45247;BME280;31529;51.158;7.354;2022-11-20T01:13:37;97434.06;;;4.43;74.20
45247;BME280;31529;51.158;7.354;2022-11-20T01:14:14;97437.47;;;4.44;74.44
45247;BME280;31529;51.158;7.354;2022-11-20T01:14:47;97435.66;;;4.44;74.78
45247;BME280;31529;51.158;7.354;2022-11-20T01:15:18;97432.75;;;4.46;74.40
45247;BME280;31529;51.158;7.354;2022-11-20T01:15:49;97435.41;;;4.46;74.53
45247;BME280;31529;51.158;7.354;2022-11-20T01:16:21;97436.97;;;4.47;74.28
45247;BME280;31529;51.158;7.354;2022-11-20T01:16:52;97428.81;;;4.48;74.47
45247;BME280;31529;51.158;7.354;2022-11-20T01:17:24;97426.16;;;4.48;74.25
45247;BME280;31529;51.158;7.354;2022-11-20T01:17:55;97428.81;;;4.48;74.22
45247;BME280;31529;51.158;7.354;2022-11-20T01:18:26;97436.47;;;4.50;74.51
45247;BME280;31529;51.158;7.354;2022-11-20T01:18:58;97432.78;;;4.51;74.30
45247;BME280;31529;51.158;7.354;2022-11-20T01:19:30;97433.59;;;4.52;74.15
45247;BME280;31529;51.158;7.354;2022-11-20T01:20:01;97428.03;;;4.53;74.19
45247;BME280;31529;51.158;7.354;2022-11-20T01:20:35;97432.28;;;4.54;74.25
45247;BME280;31529;51.158;7.354;2022-11-20T01:21:08;97433.84;;;4.55;74.13
45247;BME280;31529;51.158;7.354;2022-11-20T01:21:41;97435.97;;;4.58;74.35
45247;BME280;31529;51.158;7.354;2022-11-20T01:22:13;97433.34;;;4.58;74.35
45247;BME280;31529;51.158;7.354;2022-11-20T01:22:44;97431.22;;;4.60;74.12
45247;BME280;31529;51.158;7.354;2022-11-20T01:23:15;97432.03;;;4.61;73.83
45247;BME280;31529;51.158;7.354;2022-11-20T01:23:47;97435.47;;;4.61;73.79
45247;BME280;31529;51.158;7.354;2022-11-20T01:24:19;97437.06;;;4.62;73.81
45247;BME280;31529;51.158;7.354;2022-11-20T01:24:52;97433.63;;;4.62;73.40
45247;BME280;31529;51.158;7.354;2022-11-20T01:25:23;97414.53;;;4.49;73.57
45247;BME280;31529;51.158;7.354;2022-11-20T01:25:54;97435.19;;;4.63;73.62
45247;BME280;31529;51.158;7.354;2022-11-20T01:26:26;97436.00;;;4.63;73.32
45247;BME280;31529;51.158;7.354;2022-11-20T01:26:58;97430.47;;;4.65;73.57
45247;BME280;31529;51.158;7.354;2022-11-20T01:27:29;97431.50;;;4.64;73.25
45247;BME280;31529;51.158;7.354;2022-11-20T01:28:00;97433.91;;;4.65;73.53
45247;BME280;31529;51.158;7.354;2022-11-20T01:28:32;97428.63;;;4.65;73.82
45247;BME280;31529;51.158;7.354;2022-11-20T01:29:04;97430.19;;;4.66;73.51
45247;BME280;31529;51.158;7.354;2022-11-20T01:29:35;97436.03;;;4.68;73.65
45247;BME280;31529;51.158;7.354;2022-11-20T01:30:07;97428.09;;;4.68;74.31
45247;BME280;31529;51.158;7.354;2022-11-20T01:30:38;97428.91;;;4.69;73.85
45247;BME280;31529;51.158;7.354;2022-11-20T01:31:19;97428.91;;;4.69;73.70
45247;BME280;31529;51.158;7.354;2022-11-20T01:31:52;97426.78;;;4.71;73.68
45247;BME280;31529;51.158;7.354;2022-11-20T01:32:23;97431.28;;;4.71;73.61
45247;BME280;31529;51.158;7.354;2022-11-20T01:32:55;97428.38;;;4.72;73.43
45247;BME280;31529;51.158;7.354;2022-11-20T01:33:26;97429.19;;;4.73;73.24
45247;BME280;31529;51.158;7.354;2022-11-20T01:33:59;97431.84;;;4.73;73.47
45247;BME280;31529;51.158;7.354;2022-11-20T01:34:37;97430.75;;;4.74;72.80
45247;BME280;31529;51.158;7.354;2022-11-20T01:35:08;97430.75;;;4.74;72.57
45247;BME280;31529;51.158;7.354;2022-11-20T01:35:40;97418.63;;;4.73;72.44
45247;BME280;31529;51.158;7.354;2022-11-20T01:36:12;97427.59;;;4.72;72.55
45247;BME280;31529;51.158;7.354;2022-11-20T01:36:44;97426.78;;;4.71;72.47
45247;BME280;31529;51.158;7.354;2022-11-20T01:37:16;97421.75;;;4.69;72.25
45247;BME280;31529;51.158;7.354;2022-11-20T01:37:47;97428.91;;;4.69;72.30
45247;BME280;31529;51.158;7.354;2022-11-20T01:38:18;97423.63;;;4.69;72.56
45247;BME280;31529;51.158;7.354;2022-11-20T01:38:51;97417.50;;;4.68;72.56
45247;BME280;31529;51.158;7.354;2022-11-20T01:39:24;97418.34;;;4.69;72.51
45247;BME280;31529;51.158;7.354;2022-11-20T01:39:56;97424.41;;;4.69;72.37
45247;BME280;31529;51.158;7.354;2022-11-20T01:40:27;97416.47;;;4.69;72.81
45247;BME280;31529;51.158;7.354;2022-11-20T01:40:58;97414.63;;;4.70;72.94
45247;BME280;31529;51.158;7.354;2022-11-20T01:41:31;97413.59;;;4.71;72.73
45247;BME280;31529;51.158;7.354;2022-11-20T01:42:22;97415.44;;;4.71;72.81
45247;BME280;31529;51.158;7.354;2022-11-20T01:43:13;97411.97;;;4.70;72.47
45247;BME280;31529;51.158;7.354;2022-11-20T01:43:53;97409.88;;;4.72;72.94
45247;BME280;31529;51.158;7.354;2022-11-20T01:44:45;97407.22;;;4.72;72.85
45247;BME280;31529;51.158;7.354;2022-11-20T01:46:26;97412.00;;;4.75;72.63
45247;BME280;31529;51.158;7.354;2022-11-20T01:46:58;97411.22;;;4.75;72.33
45247;BME280;31529;51.158;7.354;2022-11-20T01:47:43;97406.72;;;4.75;72.28
45247;BME280;31529;51.158;7.354;2022-11-20T01:48:17;97405.94;;;4.75;72.43
45247;BME280;31529;51.158;7.354;2022-11-20T01:49:26;97402.22;;;4.76;72.38
45247;BME280;31529;51.158;7.354;2022-11-20T01:50:53;97402.75;;;4.78;72.27
45247;BME280;31529;51.158;7.354;2022-11-20T01:51:27;97406.47;;;4.77;72.19
45247;BME280;31529;51.158;7.354;2022-11-20T01:52:07;97404.88;;;4.76;72.15
45247;BME280;31529;51.158;7.354;2022-11-20T01:52:50;97407.50;;;4.76;72.50
45247;BME280;31529;51.158;7.354;2022-11-20T01:53:28;97408.56;;;4.75;72.35
45247;BME280;31529;51.158;7.354;2022-11-20T01:54:06;97404.88;;;4.76;72.35
45247;BME280;31529;51.158;7.354;2022-11-20T01:54:53;97405.13;;;4.74;72.60
45247;BME280;31529;51.158;7.354;2022-11-20T01:55:30;97409.63;;;4.74;72.52
45247;BME280;31529;51.158;7.354;2022-11-20T01:56:08;97408.84;;;4.73;72.72
45247;BME280;31529;51.158;7.354;2022-11-20T01:56:43;97402.75;;;4.73;72.61
45247;BME280;31529;51.158;7.354;2022-11-20T01:57:16;97411.47;;;4.73;72.43
45247;BME280;31529;51.158;7.354;2022-11-20T01:57:49;97405.41;;;4.73;72.64
45247;BME280;31529;51.158;7.354;2022-11-20T01:58:21;97400.13;;;4.73;72.75
45247;BME280;31529;51.158;7.354;2022-11-20T01:58:58;97411.22;;;4.75;72.21
45247;BME280;31529;51.158;7.354;2022-11-20T01:59:32;97404.34;;;4.74;72.30
45247;BME280;31529;51.158;7.354;2022-11-20T02:00:08;97404.34;;;4.74;72.04
45247;BME280;31529;51.158;7.354;2022-11-20T02:00:41;97409.63;;;4.74;72.39
45247;BME280;31529;51.158;7.354;2022-11-20T02:01:12;97404.34;;;4.74;72.18
45247;BME280;31529;51.158;7.354;2022-11-20T02:01:44;97404.06;;;4.75;72.37
45247;BME280;31529;51.158;7.354;2022-11-20T02:02:16;97405.94;;;4.75;71.86
45247;BME280;31529;51.158;7.354;2022-11-20T02:02:49;97412.00;;;4.75;71.67
45247;BME280;31529;51.158;7.354;2022-11-20T02:03:24;97409.13;;;4.77;71.09
45247;BME280;31529;51.158;7.354;2022-11-20T02:03:57;97410.16;;;4.76;70.96
45247;BME280;31529;51.158;7.354;2022-11-20T02:04:29;97413.88;;;4.75;71.07
45247;BME280;31529;51.158;7.354;2022-11-20T02:05:02;97413.34;;;4.73;70.87
45247;BME280;31529;51.158;7.354;2022-11-20T02:06:48;97402.22;;;4.71;71.36
45247;BME280;31529;51.158;7.354;2022-11-20T02:07:26;97413.84;;;4.69;71.42
45247;BME280;31529;51.158;7.354;2022-11-20T02:07:57;97406.69;;;4.70;71.28
45247;BME280;31529;51.158;7.354;2022-11-20T02:08:29;97410.16;;;4.71;71.84
45247;BME280;31529;51.158;7.354;2022-11-20T02:09:01;97414.63;;;4.70;71.66
45247;BME280;31529;51.158;7.354;2022-11-20T02:09:32;97412.78;;;4.71;71.85
45247;BME280;31529;51.158;7.354;2022-11-20T02:10:03;97410.94;;;4.71;71.74
45247;BME280;31529;51.158;7.354;2022-11-20T02:10:34;97411.72;;;4.72;71.84
45247;BME280;31529;51.158;7.354;2022-11-20T02:11:05;97417.00;;;4.72;71.92
45247;BME280;31529;51.158;7.354;2022-11-20T02:11:37;97416.75;;;4.73;71.99
45247;BME280;31529;51.158;7.354;2022-11-20T02:12:08;97412.25;;;4.74;71.79
45247;BME280;31529;51.158;7.354;2022-11-20T02:12:59;97411.22;;;4.75;71.91
45247;BME280;31529;51.158;7.354;2022-11-20T02:13:48;97418.09;;;4.76;72.19
45247;BME280;31529;51.158;7.354;2022-11-20T02:14:21;97412.78;;;4.76;72.24
45247;BME280;31529;51.158;7.354;2022-11-20T02:14:53;97404.88;;;4.76;72.10
45247;BME280;31529;51.158;7.354;2022-11-20T02:15:24;97412.78;;;4.76;72.07
45247;BME280;31529;51.158;7.354;2022-11-20T02:15:55;97412.00;;;4.75;71.75
45247;BME280;31529;51.158;7.354;2022-11-20T02:16:30;97409.38;;;4.75;71.63
45247;BME280;31529;51.158;7.354;2022-11-20T02:17:05;97406.72;;;4.75;71.69
45247;BME280;31529;51.158;7.354;2022-11-20T02:17:36;97404.34;;;4.74;71.58
45247;BME280;31529;51.158;7.354;2022-11-20T02:18:08;97410.41;;;4.74;71.57
45247;BME280;31529;51.158;7.354;2022-11-20T02:18:42;97411.22;;;4.75;71.39
45247;BME280;31529;51.158;7.354;2022-11-20T02:19:23;97417.56;;;4.74;71.76
45247;BME280;31529;51.158;7.354;2022-11-20T02:19:57;97412.25;;;4.74;71.91
45247;BME280;31529;51.158;7.354;2022-11-20T02:20:28;97312.66;;;4.06;72.05
45247;BME280;31529;51.158;7.354;2022-11-20T02:21:05;97412.50;;;4.72;72.24
45247;BME280;31529;51.158;7.354;2022-11-20T02:22:38;97414.91;;;4.74;72.04
45247;BME280;31529;51.158;7.354;2022-11-20T02:24:15;97415.69;;;4.74;72.10
45247;BME280;31529;51.158;7.354;2022-11-20T02:24:49;97415.69;;;4.74;72.27
45247;BME280;31529;51.158;7.354;2022-11-20T02:25:21;97419.16;;;4.75;72.35
45247;BME280;31529;51.158;7.354;2022-11-20T02:25:55;97312.38;;;4.07;72.16
45247;BME280;31529;51.158;7.354;2022-11-20T02:26:29;97418.34;;;4.74;72.30
45247;BME280;31529;51.158;7.354;2022-11-20T02:27:12;97415.69;;;4.74;72.47
45247;BME280;31529;51.158;7.354;2022-11-20T02:27:45;97416.50;;;4.75;72.48
45247;BME280;31529;51.158;7.354;2022-11-20T02:28:16;97415.44;;;4.76;72.58
45247;BME280;31529;51.158;7.354;2022-11-20T02:28:48;97412.78;;;4.76;72.62
45247;BME280;31529;51.158;7.354;2022-11-20T02:29:25;97327.47;;;4.17;72.36
45247;BME280;31529;51.158;7.354;2022-11-20T02:30:05;97409.91;;;4.77;72.39
45247;BME280;31529;51.158;7.354;2022-11-20T02:30:41;97414.16;;;4.78;72.60
45247;BME280;31529;51.158;7.354;2022-11-20T02:31:12;97410.69;;;4.78;72.44
45247;BME280;31529;51.158;7.354;2022-11-20T02:31:43;97406.22;;;4.78;72.01
45247;BME280;31529;51.158;7.354;2022-11-20T02:32:19;97410.69;;;4.78;72.04
45247;BME280;31529;51.158;7.354;2022-11-20T02:32:51;97414.41;;;4.77;71.58
45247;BME280;31529;51.158;7.354;2022-11-20T02:33:23;97410.69;;;4.78;71.75
45247;BME280;31529;51.158;7.354;2022-11-20T02:33:57;97414.16;;;4.78;71.51
45247;BME280;31529;51.158;7.354;2022-11-20T02:34:28;97410.69;;;4.78;71.75
45247;BME280;31529;51.158;7.354;2022-11-20T02:35:09;97412.28;;;4.79;71.62
45247;BME280;31529;51.158;7.354;2022-11-20T02:35:49;97410.69;;;4.78;71.26
45247;BME280;31529;51.158;7.354;2022-11-20T02:36:20;97412.78;;;4.76;71.12
45247;BME280;31529;51.158;7.354;2022-11-20T02:36:52;97410.41;;;4.74;71.26
45247;BME280;31529;51.158;7.354;2022-11-20T02:37:26;97411.22;;;4.75;71.11
45247;BME280;31529;51.158;7.354;2022-11-20T02:38:02;97403.81;;;4.72;70.96
45247;BME280;31529;51.158;7.354;2022-11-20T02:38:33;97407.22;;;4.72;71.30
45247;BME280;31529;51.158;7.354;2022-11-20T02:39:04;97401.16;;;4.72;71.13
45247;BME280;31529;51.158;7.354;2022-11-20T02:39:36;97402.22;;;4.71;71.36
45247;BME280;31529;51.158;7.354;2022-11-20T02:40:07;97405.66;;;4.71;71.12
45247;BME280;31529;51.158;7.354;2022-11-20T02:40:38;97402.22;;;4.71;71.17
45247;BME280;31529;51.158;7.354;2022-11-20T02:41:10;97403.81;;;4.72;71.32
45247;BME280;31529;51.158;7.354;2022-11-20T02:41:41;97400.38;;;4.71;71.49
45247;BME280;31529;51.158;7.354;2022-11-20T02:42:12;97397.47;;;4.73;71.37
45247;BME280;31529;51.158;7.354;2022-11-20T02:42:43;97397.47;;;4.73;71.73
45247;BME280;31529;51.158;7.354;2022-11-20T02:43:15;97396.41;;;4.74;71.66
45247;BME280;31529;51.158;7.354;2022-11-20T02:43:46;97399.84;;;4.74;71.46
45247;BME280;31529;51.158;7.354;2022-11-20T02:44:17;97396.94;;;4.76;71.30
45247;BME280;31529;51.158;7.354;2022-11-20T02:44:48;97400.66;;;4.75;71.49
45247;BME280;31529;51.158;7.354;2022-11-20T02:45:19;97401.44;;;4.75;70.88
45247;BME280;31529;51.158;7.354;2022-11-20T02:45:51;97396.16;;;4.75;71.47
45247;BME280;31529;51.158;7.354;2022-11-20T02:46:22;97398.00;;;4.75;71.11
45247;BME280;31529;51.158;7.354;2022-11-20T02:46:53;97400.66;;;4.75;71.20
45247;BME280;31529;51.158;7.354;2022-11-20T02:47:24;97405.94;;;4.75;71.15
45247;BME280;31529;51.158;7.354;2022-11-20T02:47:55;97399.59;;;4.76;71.37
45247;BME280;31529;51.158;7.354;2022-11-20T02:48:26;97404.06;;;4.75;71.52
45247;BME280;31529;51.158;7.354;2022-11-20T02:48:57;97397.19;;;4.74;71.50
45247;BME280;31529;51.158;7.354;2022-11-20T02:49:28;97401.69;;;4.74;71.83
45247;BME280;31529;51.158;7.354;2022-11-20T02:49:59;97391.13;;;4.74;71.92
45247;BME280;31529;51.158;7.354;2022-11-20T02:50:30;97399.03;;;4.74;72.10
45247;BME280;31529;51.158;7.354;2022-11-20T02:51:01;97396.41;;;4.74;72.08
45247;BME280;31529;51.158;7.354;2022-11-20T02:51:33;97403.53;;;4.73;72.26
45247;BME280;31529;51.158;7.354;2022-11-20T02:52:04;97402.75;;;4.73;72.07
45247;BME280;31529;51.158;7.354;2022-11-20T02:52:35;97398.50;;;4.72;72.10
45247;BME280;31529;51.158;7.354;2022-11-20T02:53:06;97407.75;;;4.74;72.37
45247;BME280;31529;51.158;7.354;2022-11-20T02:53:37;97396.41;;;4.74;72.69
45247;BME280;31529;51.158;7.354;2022-11-20T02:54:08;97396.41;;;4.74;72.17
45247;BME280;31529;51.158;7.354;2022-11-20T02:54:39;97394.56;;;4.74;71.85
45247;BME280;31529;51.158;7.354;2022-11-20T02:55:10;97390.34;;;4.73;71.89
45247;BME280;31529;51.158;7.354;2022-11-20T02:55:41;97394.84;;;4.73;71.77
45247;BME280;31529;51.158;7.354;2022-11-20T02:56:12;97392.69;;;4.69;71.68
45247;BME280;31529;51.158;7.354;2022-11-20T02:56:44;97395.59;;;4.68;71.97
45247;BME280;31529;51.158;7.354;2022-11-20T02:57:15;97391.38;;;4.67;71.67
45247;BME280;31529;51.158;7.354;2022-11-20T02:57:46;97390.56;;;4.66;72.08
45247;BME280;31529;51.158;7.354;2022-11-20T02:58:17;97392.41;;;4.66;71.96
45247;BME280;31529;51.158;7.354;2022-11-20T02:58:48;97396.91;;;4.65;72.32
45247;BME280;31529;51.158;7.354;2022-11-20T02:59:19;97387.13;;;4.66;72.32
45247;BME280;31529;51.158;7.354;2022-11-20T02:59:50;97386.34;;;4.65;72.52
45247;BME280;31529;51.158;7.354;2022-11-20T03:00:21;97387.91;;;4.66;72.20
45247;BME280;31529;51.158;7.354;2022-11-20T03:00:52;97387.91;;;4.66;72.13
45247;BME280;31529;51.158;7.354;2022-11-20T03:01:23;97389.78;;;4.66;72.44
45247;BME280;31529;51.158;7.354;2022-11-20T03:01:54;97389.78;;;4.66;72.38